Time;durP1;ratioP1;P1;durP2;ratioP2;P2;SDS_P1;SDS_P2;PMS_P1;PMS_P2;Temp;Humidity;BMP_temperature;BMP_pressure;BME280_temperature;BME280_humidity;BME280_pressure;Samples;Min_cycle;Max_cycle;Signal;HPM_P1;HPM_P2
2022/09/10 00:00:33;;;;;;;93.55;86.85;;;;;;;;;;10152329;28;20043;-68
2022/09/10 00:05:29;;;;;;;96.55;89.68;;;;;;;;;;10152247;28;20050;-68
2022/09/10 00:10:25;;;;;;;99.32;92.18;;;;;;;;;;10152215;28;20475;-68
2022/09/10 00:15:22;;;;;;;94.30;87.70;;;;;;;;;;10151756;28;20046;-69
2022/09/10 00:20:18;;;;;;;94.25;87.40;;;;;;;;;;10157013;28;20047;-68
2022/09/10 00:25:14;;;;;;;101.55;94.43;;;;;;;;;;10158637;28;20412;-68
2022/09/10 00:30:11;;;;;;;101.50;94.40;;;;;;;;;;10119184;28;20061;-69
2022/09/10 00:35:07;;;;;;;101.03;93.90;;;;;;;;;;10135906;28;20054;-68
2022/09/10 00:40:04;;;;;;;99.05;92.07;;;;;;;;;;10159108;28;20062;-69
2022/09/10 00:45:01;;;;;;;96.20;89.43;;;;;;;;;;10158171;28;20047;-68
2022/09/10 00:50:02;;;;;;;98.10;91.20;;;;;;;;;;10158292;28;20523;-69
2022/09/10 00:54:58;;;;;;;94.38;87.40;;;;;;;;;;10139307;28;20046;-68
2022/09/10 00:59:59;;;;;;;95.32;88.50;;;;;;;;;;10155859;28;20039;-68
2022/09/10 01:04:57;;;;;;;92.20;85.65;;;;;;;;;;10156538;28;20423;-68
2022/09/10 01:09:55;;;;;;;92.43;85.97;;;;;;;;;;10156045;28;20070;-68
2022/09/10 01:14:54;;;;;;;90.50;84.10;;;;;;;;;;10156530;28;20042;-69
2022/09/10 01:19:50;;;;;;;92.25;85.50;;;;;;;;;;10156012;28;20440;-68
2022/09/10 01:24:53;;;;;;;91.50;84.90;;;;;;;;;;10153794;28;20038;-68
2022/09/10 01:29:49;;;;;;;;;;;;;;;;;;10116239;28;20047;-68
2022/09/10 01:35:04;;;;;;;94.68;87.93;;;;;;;;;;10134464;28;19922;-68
2022/09/10 01:40:01;;;;;;;93.78;87.07;;;;;;;;;;10156525;28;20042;-68
2022/09/10 01:44:57;;;;;;;90.55;83.95;;;;;;;;;;10155605;28;20113;-68
2022/09/10 01:49:55;;;;;;;89.90;83.55;;;;;;;;;;10155678;28;20634;-68
2022/09/10 01:55:03;;;;;;;91.78;85.38;;;;;;;;;;10154653;28;20501;-68
2022/09/10 02:00:08;;;;;;;92.05;85.63;;;;;;;;;;10123218;28;20039;-68
2022/09/10 02:05:05;;;;;;;93.82;87.18;;;;;;;;;;10125273;28;20046;-69
2022/09/10 02:10:06;;;;;;;99.68;92.78;;;;;;;;;;10114575;28;20057;-69
2022/09/10 02:15:03;;;;;;;94.43;87.82;;;;;;;;;;10131536;28;20058;-69
2022/09/10 02:20:01;;;;;;;95.25;88.65;;;;;;;;;;10155113;28;20042;-68
2022/09/10 02:24:57;;;;;;;97.03;90.20;;;;;;;;;;10136517;28;20615;-68
2022/09/10 02:29:54;;;;;;;95.50;88.55;;;;;;;;;;10151654;28;20053;-68
2022/09/10 02:34:50;;;;;;;90.90;84.18;;;;;;;;;;10128996;28;20046;-68
2022/09/10 02:39:46;;;;;;;92.10;85.50;;;;;;;;;;10137685;28;20057;-68
2022/09/10 02:44:43;;;;;;;92.00;85.50;;;;;;;;;;10127640;28;20043;-68
2022/09/10 02:49:39;;;;;;;93.60;87.15;;;;;;;;;;10137271;28;20053;-68
2022/09/10 02:54:36;;;;;;;93.68;87.07;;;;;;;;;;10126364;28;20050;-68
2022/09/10 02:59:32;;;;;;;92.78;86.30;;;;;;;;;;10136684;28;20536;-68
2022/09/10 03:04:28;;;;;;;91.93;85.43;;;;;;;;;;10125304;28;20444;-68
2022/09/10 03:09:27;;;;;;;89.40;83.10;;;;;;;;;;10135266;28;20058;-68
2022/09/10 03:14:24;;;;;;;91.30;84.80;;;;;;;;;;10124665;28;20046;-68
2022/09/10 03:19:20;;;;;;;88.47;82.07;;;;;;;;;;10133651;28;20074;-68
2022/09/10 03:24:17;;;;;;;88.47;82.20;;;;;;;;;;10123160;28;20504;-68
2022/09/10 03:29:14;;;;;;;87.15;80.85;;;;;;;;;;10123716;28;20414;-68
2022/09/10 03:34:11;;;;;;;87.72;81.25;;;;;;;;;;10122279;28;20051;-68
2022/09/10 03:39:07;;;;;;;84.38;78.00;;;;;;;;;;10121612;28;20051;-68
2022/09/10 03:44:04;;;;;;;86.88;80.70;;;;;;;;;;10121485;28;20122;-68
2022/09/10 03:49:01;;;;;;;84.47;78.20;;;;;;;;;;10120533;28;20374;-68
2022/09/10 03:54:00;;;;;;;86.25;79.85;;;;;;;;;;10123493;28;20130;-68
2022/09/10 03:58:56;;;;;;;86.80;80.30;;;;;;;;;;10122622;28;20075;-68
2022/09/10 04:03:53;;;;;;;90.07;83.47;;;;;;;;;;10127050;28;20492;-68
2022/09/10 04:08:51;;;;;;;86.22;79.38;;;;;;;;;;10159782;28;20050;-68
2022/09/10 04:13:47;;;;;;;86.25;79.78;;;;;;;;;;10140086;28;20401;-68
2022/09/10 04:18:44;;;;;;;86.43;80.13;;;;;;;;;;10158725;28;20043;-68
2022/09/10 04:23:40;;;;;;;87.13;80.70;;;;;;;;;;10159309;28;20042;-68
2022/09/10 04:28:37;;;;;;;85.88;79.47;;;;;;;;;;10158108;28;20124;-68
2022/09/10 04:33:33;;;;;;;89.68;83.07;;;;;;;;;;10159257;28;20073;-69
2022/09/10 04:38:31;;;;;;;88.30;81.70;;;;;;;;;;10158207;28;20042;-68
2022/09/10 04:43:27;;;;;;;89.93;83.43;;;;;;;;;;10158291;28;20535;-69
2022/09/10 04:48:24;;;;;;;89.88;83.18;;;;;;;;;;10158239;28;20050;-68
2022/09/10 04:53:20;;;;;;;93.75;86.85;;;;;;;;;;10157610;28;20050;-68
2022/09/10 04:58:16;;;;;;;93.32;86.65;;;;;;;;;;10157729;28;20044;-68
2022/09/10 05:03:13;;;;;;;99.10;91.28;;;;;;;;;;10157520;28;20043;-68
2022/09/10 05:08:09;;;;;;;91.32;84.28;;;;;;;;;;10157564;28;20050;-68
2022/09/10 05:13:06;;;;;;;93.00;86.30;;;;;;;;;;10121105;28;20050;-68
2022/09/10 05:18:02;;;;;;;94.93;88.07;;;;;;;;;;10156972;28;20045;-69
2022/09/10 05:22:58;;;;;;;90.00;83.38;;;;;;;;;;10119511;28;20046;-68
2022/09/10 05:27:54;;;;;;;89.82;83.53;;;;;;;;;;10155529;28;20074;-68
2022/09/10 05:32:52;;;;;;;90.00;83.60;;;;;;;;;;10156629;28;20058;-68
2022/09/10 05:37:48;;;;;;;88.13;81.72;;;;;;;;;;10136752;28;20122;-68
2022/09/10 05:42:44;;;;;;;91.30;84.70;;;;;;;;;;10131863;28;20501;-68
2022/09/10 05:47:42;;;;;;;89.70;83.20;;;;;;;;;;10123828;28;20050;-68
2022/09/10 05:52:39;;;;;;;89.55;83.20;;;;;;;;;;10116757;28;20050;-68
2022/09/10 05:57:35;;;;;;;91.47;85.03;;;;;;;;;;10152545;28;20046;-68
2022/09/10 06:02:32;;;;;;;86.93;80.43;;;;;;;;;;10141025;28;20049;-68
2022/09/10 06:07:29;;;;;;;84.65;78.45;;;;;;;;;;10151293;28;20077;-68
2022/09/10 06:12:25;;;;;;;88.53;82.00;;;;;;;;;;10154718;28;20428;-68
2022/09/10 06:17:22;;;;;;;81.80;75.35;;;;;;;;;;10154143;28;20463;-68
2022/09/10 06:22:18;;;;;;;80.05;73.57;;;;;;;;;;10154150;28;20057;-68
2022/09/10 06:27:14;;;;;;;83.82;77.65;;;;;;;;;;10154472;28;20042;-68
2022/09/10 06:32:11;;;;;;;86.53;79.80;;;;;;;;;;10116656;28;20508;-68
2022/09/10 06:37:07;;;;;;;85.80;79.40;;;;;;;;;;10147079;28;20075;-68
2022/09/10 06:42:04;;;;;;;87.15;80.65;;;;;;;;;;10154286;28;20049;-68
2022/09/10 06:47:01;;;;;;;87.80;81.25;;;;;;;;;;10153101;28;20046;-68
2022/09/10 06:52:17;;;;;;;85.95;79.30;;;;;;;;;;10153314;28;20472;-68
2022/09/10 06:57:13;;;;;;;84.47;78.07;;;;;;;;;;10153493;28;20509;-68
2022/09/10 07:02:10;;;;;;;89.22;82.60;;;;;;;;;;10153259;28;20060;-68
2022/09/10 07:07:08;;;;;;;111.53;102.85;;;;;;;;;;10152127;28;20113;-68
2022/09/10 07:12:04;;;;;;;121.75;112.95;;;;;;;;;;10153003;28;20416;-68
2022/09/10 07:17:01;;;;;;;129.30;120.00;;;;;;;;;;10152001;28;20130;-68
2022/09/10 07:21:57;;;;;;;130.60;121.25;;;;;;;;;;10153065;28;20523;-68
2022/09/10 07:26:56;;;;;;;127.88;118.78;;;;;;;;;;10145055;28;20053;-68
2022/09/10 07:31:52;;;;;;;131.00;121.93;;;;;;;;;;10118534;28;20055;-68
2022/09/10 07:36:49;;;;;;;131.73;122.55;;;;;;;;;;10148542;28;20046;-68
2022/09/10 07:41:45;;;;;;;119.32;111.00;;;;;;;;;;10157936;28;20072;-69
2022/09/10 07:46:42;;;;;;;117.70;109.18;;;;;;;;;;10142521;28;20047;-68
2022/09/10 07:51:38;;;;;;;119.18;110.20;;;;;;;;;;10118709;28;20042;-68
2022/09/10 07:56:35;;;;;;;127.20;118.18;;;;;;;;;;10146292;28;20056;-68
2022/09/10 08:01:31;;;;;;;135.05;125.57;;;;;;;;;;10157701;28;20062;-68
2022/09/10 08:06:28;;;;;;;149.60;138.85;;;;;;;;;;10134368;28;20050;-68
2022/09/10 08:11:24;;;;;;;134.80;125.38;;;;;;;;;;10118054;28;20062;-68
2022/09/10 08:16:22;;;;;;;142.23;132.77;;;;;;;;;;10144744;28;20049;-69
2022/09/10 08:21:18;;;;;;;151.13;141.48;;;;;;;;;;10156933;28;20050;-68
2022/09/10 08:26:15;;;;;;;148.30;138.80;;;;;;;;;;10123760;28;1141571;-70
2022/09/10 08:31:11;;;;;;;120.38;112.68;;;;;;;;;;10159175;28;20046;-68
2022/09/10 08:36:09;;;;;;;123.85;116.20;;;;;;;;;;10158980;28;20534;-69
2022/09/10 08:41:12;;;;;;;118.57;111.10;;;;;;;;;;10138558;28;20057;-69
2022/09/10 08:46:20;;;;;;;123.13;115.75;;;;;;;;;;10144038;28;20424;-68
2022/09/10 08:51:19;;;;;;;120.60;113.50;;;;;;;;;;10157587;28;20050;-68
2022/09/10 08:56:18;;;;;;;127.03;119.55;;;;;;;;;;10156574;28;20042;-69
2022/09/10 09:01:18;;;;;;;124.18;116.65;;;;;;;;;;10157879;28;20047;-68
2022/09/10 09:06:34;;;;;;;123.70;116.65;;;;;;;;;;10157557;28;20076;-68
2022/09/10 09:11:30;;;;;;;121.57;114.32;;;;;;;;;;10158066;28;20508;-68
2022/09/10 09:16:32;;;;;;;119.07;111.95;;;;;;;;;;10156693;28;20050;-68
2022/09/10 09:21:31;;;;;;;103.20;96.85;;;;;;;;;;10154335;28;20505;-68
2022/09/10 09:26:33;;;;;;;112.22;105.82;;;;;;;;;;10144488;28;20692;-68
2022/09/10 09:31:31;;;;;;;98.32;92.82;;;;;;;;;;10156931;28;20043;-68
2022/09/10 09:36:38;;;;;;;87.20;81.93;;;;;;;;;;10156697;28;20767;-68
2022/09/10 09:41:46;;;;;;;80.63;75.60;;;;;;;;;;10155721;28;20054;-68
2022/09/10 09:46:42;;;;;;;63.17;58.90;;;;;;;;;;10156366;28;20050;-69
2022/09/10 09:51:39;;;;;;;57.63;53.72;;;;;;;;;;10131855;28;20452;-68
2022/09/10 09:56:41;;;;;;;71.07;66.78;;;;;;;;;;10144552;28;20056;-68
2022/09/10 10:01:39;;;;;;;101.13;95.20;;;;;;;;;;10116337;28;20053;-68
2022/09/10 10:06:46;;;;;;;73.18;68.95;;;;;;;;;;10135262;28;20051;-68
2022/09/10 10:11:42;;;;;;;54.58;51.15;;;;;;;;;;10116108;28;20077;-68
2022/09/10 10:16:38;;;;;;;53.20;49.80;;;;;;;;;;10127343;28;20042;-68
2022/09/10 10:21:35;;;;;;;53.30;49.72;;;;;;;;;;10115760;28;20054;-68
2022/09/10 10:26:33;;;;;;;65.53;61.17;;;;;;;;;;10142536;28;20449;-69
2022/09/10 10:31:34;;;;;;;55.90;52.42;;;;;;;;;;10154727;28;20180;-68
2022/09/10 10:36:40;;;;;;;74.57;69.97;;;;;;;;;;10149618;28;20046;-68
2022/09/10 10:41:42;;;;;;;65.28;61.28;;;;;;;;;;10153556;28;20508;-68
2022/09/10 10:47:03;;;;;;;49.47;46.28;;;;;;;;;;10154027;28;20054;-68
2022/09/10 10:52:18;;;;;;;63.35;59.65;;;;;;;;;;10133658;28;20054;-68
2022/09/10 10:57:29;;;;;;;51.55;48.15;;;;;;;;;;10147593;28;20057;-68
2022/09/10 11:02:32;;;;;;;34.47;31.90;;;;;;;;;;10153288;28;20050;-68
2022/09/10 11:07:33;;;;;;;37.25;34.63;;;;;;;;;;10153117;28;20108;-68
2022/09/10 11:12:34;;;;;;;50.30;46.80;;;;;;;;;;10153312;28;20046;-68
2022/09/10 11:17:34;;;;;;;54.20;50.75;;;;;;;;;;10145076;28;20073;-68
2022/09/10 11:22:33;;;;;;;54.08;50.55;;;;;;;;;;10113973;28;20055;-68
2022/09/10 11:27:36;;;;;;;42.70;39.60;;;;;;;;;;10141673;28;20428;-68
2022/09/10 11:32:33;;;;;;;;;;;;;;;;;;10114363;28;20540;-68
2022/09/10 11:37:43;;;;;;;37.47;34.88;;;;;;;;;;10148610;28;19926;-68
2022/09/10 11:42:42;;;;;;;29.95;27.65;;;;;;;;;;10153129;28;20427;-68
2022/09/10 11:47:41;;;;;;;35.38;33.00;;;;;;;;;;10152127;28;20282;-68
2022/09/10 11:52:39;;;;;;;29.50;27.27;;;;;;;;;;10152949;28;20053;-68
2022/09/10 11:57:46;;;;;;;28.48;26.20;;;;;;;;;;10124749;28;20047;-68
2022/09/10 12:02:58;;;;;;;22.08;20.05;;;;;;;;;;10112967;28;20077;-68
2022/09/10 12:08:00;;;;;;;20.63;18.88;;;;;;;;;;10112867;28;20061;-68
2022/09/10 12:12:56;;;;;;;16.70;15.18;;;;;;;;;;10114482;28;20054;-68
2022/09/10 12:18:05;;;;;;;15.60;14.40;;;;;;;;;;10159571;28;20050;-68
2022/09/10 12:23:02;;;;;;;15.23;13.82;;;;;;;;;;10145725;28;20047;-68
2022/09/10 12:28:04;;;;;;;18.73;16.92;;;;;;;;;;10158866;28;20404;-68
2022/09/10 12:33:01;;;;;;;18.17;16.60;;;;;;;;;;10158456;28;20051;-68
2022/09/10 12:38:16;;;;;;;21.38;19.83;;;;;;;;;;10158279;28;20421;-68
2022/09/10 12:43:31;;;;;;;14.68;13.55;;;;;;;;;;10158146;28;20050;-68
2022/09/10 12:48:28;;;;;;;13.63;12.35;;;;;;;;;;10157560;28;20504;-68
2022/09/10 12:53:32;;;;;;;12.65;11.75;;;;;;;;;;10121714;28;20042;-68
2022/09/10 12:58:37;;;;;;;12.32;11.25;;;;;;;;;;10157297;28;20048;-68
2022/09/10 13:03:34;;;;;;;12.65;11.65;;;;;;;;;;10157984;28;20061;-68
2022/09/10 13:08:32;;;;;;;12.73;11.75;;;;;;;;;;10156876;28;20048;-68
2022/09/10 13:13:28;;;;;;;11.95;10.38;;;;;;;;;;10157287;28;20042;-68
2022/09/10 13:18:29;;;;;;;11.75;10.85;;;;;;;;;;10156599;28;20622;-68
2022/09/10 13:23:42;;;;;;;11.73;10.73;;;;;;;;;;10157396;28;20186;-68
2022/09/10 13:28:39;;;;;;;11.93;11.05;;;;;;;;;;10154845;28;20068;-68
2022/09/10 13:33:48;;;;;;;13.30;12.23;;;;;;;;;;10156650;28;20050;-68
2022/09/10 13:39:04;;;;;;;11.25;10.35;;;;;;;;;;10116653;28;20053;-68
2022/09/10 13:44:19;;;;;;;12.25;11.20;;;;;;;;;;10124654;28;20129;-68
2022/09/10 13:49:18;;;;;;;11.85;10.80;;;;;;;;;;10155833;28;20053;-68
2022/09/10 13:54:27;;;;;;;11.63;10.63;;;;;;;;;;10154878;28;20050;-68
2022/09/10 13:59:29;;;;;;;12.13;11.13;;;;;;;;;;10155107;28;20054;-68
2022/09/10 14:04:27;;;;;;;12.13;10.93;;;;;;;;;;10150873;28;20421;-68
2022/09/10 14:09:27;;;;;;;12.68;11.48;;;;;;;;;;10115677;28;20475;-68
2022/09/10 14:14:26;;;;;;;11.82;10.73;;;;;;;;;;10125899;28;20053;-68
2022/09/10 14:19:24;;;;;;;11.63;10.63;;;;;;;;;;10154909;28;20046;-68
2022/09/10 14:24:27;;;;;;;12.45;10.98;;;;;;;;;;10146394;28;20057;-67
2022/09/10 14:29:24;;;;;;;11.35;10.38;;;;;;;;;;10114798;28;20043;-67
2022/09/10 14:34:28;;;;;;;11.73;10.75;;;;;;;;;;10135642;28;20055;-67
2022/09/10 14:39:24;;;;;;;12.43;11.43;;;;;;;;;;10153644;28;20433;-67
2022/09/10 14:44:21;;;;;;;12.23;11.23;;;;;;;;;;10127061;28;20082;-67
2022/09/10 14:49:22;;;;;;;12.05;10.85;;;;;;;;;;10153266;28;20050;-67
2022/09/10 14:54:18;;;;;;;11.38;10.38;;;;;;;;;;10153289;28;20052;-67
2022/09/10 14:59:16;;;;;;;11.32;10.35;;;;;;;;;;10124505;28;20069;-68
2022/09/10 15:04:14;;;;;;;10.88;9.88;;;;;;;;;;10123032;28;20083;-67
2022/09/10 15:09:11;;;;;;;10.43;9.68;;;;;;;;;;10152564;28;20058;-67
2022/09/10 15:14:11;;;;;;;11.10;10.15;;;;;;;;;;10152572;28;20119;-67
2022/09/10 15:19:07;;;;;;;12.23;11.02;;;;;;;;;;10152754;28;20202;-67
2022/09/10 15:24:04;;;;;;;10.82;10.13;;;;;;;;;;10152072;28;20046;-67
2022/09/10 15:29:01;;;;;;;11.13;10.32;;;;;;;;;;10152860;28;20046;-67
2022/09/10 15:33:57;;;;;;;11.60;10.68;;;;;;;;;;10150858;28;20050;-68
2022/09/10 15:38:54;;;;;;;11.23;10.38;;;;;;;;;;10152465;28;20523;-67
2022/09/10 15:43:50;;;;;;;10.52;9.77;;;;;;;;;;10151915;28;20042;-67
2022/09/10 15:48:47;;;;;;;9.95;9.18;;;;;;;;;;10153592;28;20047;-67
2022/09/10 15:53:44;;;;;;;9.95;9.25;;;;;;;;;;10158732;28;20412;-68
2022/09/10 15:58:46;;;;;;;10.30;9.60;;;;;;;;;;10159382;28;20053;-68
2022/09/10 16:03:46;;;;;;;9.90;9.10;;;;;;;;;;10156821;28;20060;-67
2022/09/10 16:08:46;;;;;;;10.15;9.35;;;;;;;;;;10158314;28;20053;-67
2022/09/10 16:13:43;;;;;;;10.95;10.07;;;;;;;;;;10159322;28;20046;-68
2022/09/10 16:18:40;;;;;;;12.52;11.63;;;;;;;;;;10158020;28;20049;-68
2022/09/10 16:23:37;;;;;;;15.00;13.77;;;;;;;;;;10158693;28;20054;-67
2022/09/10 16:28:34;;;;;;;13.93;13.02;;;;;;;;;;10156982;28;20047;-69
2022/09/10 16:33:31;;;;;;;17.45;16.02;;;;;;;;;;10158158;28;20050;-69
2022/09/10 16:38:27;;;;;;;18.75;17.48;;;;;;;;;;10147696;28;20133;-69
2022/09/10 16:43:27;;;;;;;18.95;17.70;;;;;;;;;;10121767;28;20050;-68
2022/09/10 16:48:24;;;;;;;20.60;19.30;;;;;;;;;;10140802;28;20042;-68
2022/09/10 16:53:20;;;;;;;24.15;22.58;;;;;;;;;;10121095;28;20501;-69
2022/09/10 16:58:17;;;;;;;25.77;24.08;;;;;;;;;;10126935;28;20049;-69
2022/09/10 17:03:14;;;;;;;31.48;29.58;;;;;;;;;;10119205;28;20113;-69
2022/09/10 17:08:10;;;;;;;38.22;36.08;;;;;;;;;;10157017;28;20062;-69
2022/09/10 17:13:07;;;;;;;45.50;43.00;;;;;;;;;;10149315;28;20047;-68
2022/09/10 17:18:06;;;;;;;65.93;62.47;;;;;;;;;;10157302;28;20397;-68
2022/09/10 17:23:02;;;;;;;74.68;70.90;;;;;;;;;;10156189;28;20050;-68
2022/09/10 17:27:58;;;;;;;107.20;101.82;;;;;;;;;;10115668;28;20058;-68
2022/09/10 17:32:54;;;;;;;109.53;103.97;;;;;;;;;;10142727;28;20053;-68
2022/09/10 17:37:51;;;;;;;133.38;126.35;;;;;;;;;;10156508;28;20046;-69
2022/09/10 17:42:47;;;;;;;151.30;143.52;;;;;;;;;;10155613;28;20048;-68
2022/09/10 17:47:44;;;;;;;144.68;137.07;;;;;;;;;;10155445;28;20054;-68
2022/09/10 17:52:44;;;;;;;158.57;150.38;;;;;;;;;;10156088;28;20047;-68
2022/09/10 17:57:40;;;;;;;166.15;157.57;;;;;;;;;;10154915;28;20512;-68
2022/09/10 18:02:37;;;;;;;127.43;120.72;;;;;;;;;;10155624;28;20456;-68
2022/09/10 18:07:33;;;;;;;125.35;118.65;;;;;;;;;;10154434;28;20042;-69
2022/09/10 18:12:29;;;;;;;128.20;121.35;;;;;;;;;;10154903;28;20046;-68
2022/09/10 18:17:26;;;;;;;132.70;125.35;;;;;;;;;;10154584;28;20049;-68
2022/09/10 18:22:23;;;;;;;131.73;124.40;;;;;;;;;;10154627;28;20046;-68
2022/09/10 18:27:19;;;;;;;140.15;132.38;;;;;;;;;;10153966;28;20129;-68
2022/09/10 18:32:15;;;;;;;137.82;129.82;;;;;;;;;;10154556;28;20148;-68
2022/09/10 18:37:12;;;;;;;134.95;127.18;;;;;;;;;;10153877;28;20057;-69
2022/09/10 18:42:09;;;;;;;141.15;133.13;;;;;;;;;;10153926;28;20058;-68
2022/09/10 18:47:07;;;;;;;145.27;136.63;;;;;;;;;;10154337;28;20060;-68
2022/09/10 18:52:17;;;;;;;143.63;135.25;;;;;;;;;;10153804;28;20050;-68
2022/09/10 18:57:13;;;;;;;145.25;137.00;;;;;;;;;;10153234;28;20054;-68
2022/09/10 19:02:13;;;;;;;143.57;135.02;;;;;;;;;;10153571;28;20058;-68
2022/09/10 19:07:10;;;;;;;148.60;139.88;;;;;;;;;;10153040;28;20685;-68
2022/09/10 19:12:07;;;;;;;140.07;131.23;;;;;;;;;;10153397;28;20051;-68
2022/09/10 19:17:03;;;;;;;139.27;130.82;;;;;;;;;;10152717;28;20405;-69
2022/09/10 19:22:05;;;;;;;136.98;128.25;;;;;;;;;;10153192;28;20046;-68
2022/09/10 19:27:02;;;;;;;144.65;135.48;;;;;;;;;;10160820;28;20057;-68
2022/09/10 19:31:59;;;;;;;139.73;130.82;;;;;;;;;;10161122;28;20050;-68
2022/09/10 19:36:55;;;;;;;146.02;137.02;;;;;;;;;;10159527;28;20161;-68
2022/09/10 19:41:52;;;;;;;139.63;130.77;;;;;;;;;;10160817;28;20045;-68
2022/09/10 19:46:49;;;;;;;145.68;136.40;;;;;;;;;;10159926;28;20058;-68
2022/09/10 19:51:45;;;;;;;148.27;138.90;;;;;;;;;;10160050;28;20050;-68
2022/09/10 19:56:42;;;;;;;147.77;138.27;;;;;;;;;;10160307;28;20420;-68
2022/09/10 20:01:39;;;;;;;147.05;137.75;;;;;;;;;;10159895;28;20555;-68
2022/09/10 20:06:36;;;;;;;142.13;132.88;;;;;;;;;;10159984;28;20059;-68
2022/09/10 20:11:33;;;;;;;146.13;136.75;;;;;;;;;;10159346;28;20049;-68
2022/09/10 20:16:30;;;;;;;145.43;136.23;;;;;;;;;;10159858;28;20052;-68
2022/09/10 20:21:28;;;;;;;147.50;138.48;;;;;;;;;;10135405;28;20069;-68
2022/09/10 20:26:26;;;;;;;141.13;131.93;;;;;;;;;;10146126;28;20046;-68
2022/09/10 20:31:22;;;;;;;141.45;132.57;;;;;;;;;;10120744;28;20054;-68
2022/09/10 20:36:19;;;;;;;144.05;134.75;;;;;;;;;;10132619;28;20062;-68
2022/09/10 20:41:15;;;;;;;141.02;131.82;;;;;;;;;;10118977;28;20624;-68
2022/09/10 20:46:13;;;;;;;146.02;136.68;;;;;;;;;;10144419;28;20065;-68
2022/09/10 20:51:10;;;;;;;141.57;132.32;;;;;;;;;;10157757;28;20473;-68
2022/09/10 20:56:07;;;;;;;150.55;140.55;;;;;;;;;;10143548;28;20488;-68
2022/09/10 21:01:30;;;;;;;145.05;135.50;;;;;;;;;;10157778;28;20050;-68
2022/09/10 21:06:27;;;;;;;149.37;139.47;;;;;;;;;;10158577;28;20136;-68
2022/09/10 21:11:25;;;;;;;157.93;147.38;;;;;;;;;;10145189;28;20053;-68
2022/09/10 21:16:26;;;;;;;162.52;151.75;;;;;;;;;;10144602;28;20057;-68
2022/09/10 21:21:26;;;;;;;157.60;147.18;;;;;;;;;;10156254;28;20057;-67
2022/09/10 21:26:26;;;;;;;158.85;148.27;;;;;;;;;;10156693;28;20497;-68
2022/09/10 21:31:23;;;;;;;151.30;141.25;;;;;;;;;;10156873;28;20046;-68
2022/09/10 21:36:19;;;;;;;152.25;142.30;;;;;;;;;;10156169;28;20193;-68
2022/09/10 21:41:18;;;;;;;149.70;139.63;;;;;;;;;;10156319;28;20046;-68
2022/09/10 21:46:14;;;;;;;148.18;137.98;;;;;;;;;;10154805;28;20062;-68
2022/09/10 21:51:12;;;;;;;146.70;136.35;;;;;;;;;;10155437;28;20066;-68
2022/09/10 21:56:12;;;;;;;149.80;139.55;;;;;;;;;;10155727;28;20507;-68
2022/09/10 22:01:10;;;;;;;146.30;136.30;;;;;;;;;;10155725;28;20050;-68
2022/09/10 22:06:08;;;;;;;146.70;136.70;;;;;;;;;;10155683;28;20046;-68
2022/09/10 22:11:06;;;;;;;148.07;137.88;;;;;;;;;;10155018;28;20042;-68
2022/09/10 22:16:04;;;;;;;150.90;140.98;;;;;;;;;;10154825;28;20042;-68
2022/09/10 22:21:01;;;;;;;152.85;142.65;;;;;;;;;;10154841;28;20042;-68
2022/09/10 22:26:16;;;;;;;147.60;137.30;;;;;;;;;;10153912;28;20389;-68
2022/09/10 22:31:17;;;;;;;150.57;140.15;;;;;;;;;;10115423;28;20042;-68
2022/09/10 22:36:15;;;;;;;150.27;139.57;;;;;;;;;;10127963;28;20078;-68
2022/09/10 22:41:13;;;;;;;148.77;138.65;;;;;;;;;;10114911;28;20462;-68
2022/09/10 22:46:09;;;;;;;150.02;139.43;;;;;;;;;;10139516;28;20201;-68
2022/09/10 22:51:07;;;;;;;156.65;145.30;;;;;;;;;;10154059;28;20050;-68
2022/09/10 22:56:03;;;;;;;153.68;143.23;;;;;;;;;;10147745;28;20046;-68
2022/09/10 23:01:03;;;;;;;157.65;146.85;;;;;;;;;;10153579;28;20427;-68
2022/09/10 23:06:19;;;;;;;155.07;144.43;;;;;;;;;;10139020;28;20137;-68
2022/09/10 23:11:15;;;;;;;151.15;140.52;;;;;;;;;;10152853;28;20052;-68
2022/09/10 23:16:14;;;;;;;155.38;144.18;;;;;;;;;;10139027;28;20067;-68
2022/09/10 23:21:10;;;;;;;153.43;142.93;;;;;;;;;;10152999;28;20108;-68
2022/09/10 23:26:08;;;;;;;153.48;142.73;;;;;;;;;;10153315;28;20053;-68
2022/09/10 23:31:12;;;;;;;153.90;142.90;;;;;;;;;;10141779;28;20508;-68
2022/09/10 23:36:10;;;;;;;156.77;145.95;;;;;;;;;;10138278;28;20508;-68
2022/09/10 23:41:08;;;;;;;151.93;140.82;;;;;;;;;;10152696;28;20046;-68
2022/09/10 23:46:05;;;;;;;151.85;140.90;;;;;;;;;;10152271;28;20050;-68
2022/09/10 23:51:02;;;;;;;155.07;143.82;;;;;;;;;;10152367;28;20090;-68
2022/09/10 23:55:58;;;;;;;149.32;138.60;;;;;;;;;;10152258;28;20053;-68
